createdAt,value
2018-02-04T00:00:23.822Z,0.00
2018-02-04T00:01:23.550Z,0.00
2018-02-04T00:02:23.512Z,0.00
2018-02-04T00:03:23.483Z,0.00
2018-02-04T00:04:23.454Z,0.00
2018-02-04T00:05:23.422Z,0.00
2018-02-04T00:06:23.394Z,0.00
2018-02-04T00:07:23.365Z,0.00
2018-02-04T00:08:23.334Z,0.00
2018-02-04T00:09:23.304Z,0.00
2018-02-04T00:10:23.276Z,0.00
2018-02-04T00:11:23.246Z,0.00
2018-02-04T00:12:23.215Z,0.00
2018-02-04T00:13:23.185Z,0.00
2018-02-04T00:14:23.156Z,0.00
2018-02-04T00:15:23.128Z,0.00
2018-02-04T00:16:23.098Z,0.00
2018-02-04T00:17:23.066Z,0.00
2018-02-04T00:18:23.038Z,0.00
2018-02-04T00:19:23.008Z,0.00
2018-02-04T00:20:23.228Z,0.00
2018-02-04T00:21:22.949Z,0.00
2018-02-04T00:22:22.919Z,0.00
2018-02-04T00:23:22.889Z,0.00
2018-02-04T00:24:22.859Z,0.00
2018-02-04T00:25:22.980Z,0.00
2018-02-04T00:26:22.800Z,0.00
2018-02-04T00:27:22.770Z,0.00
2018-02-04T00:28:22.746Z,0.00
2018-02-04T00:29:22.711Z,0.00
2018-02-04T00:30:22.933Z,0.00
2018-02-04T00:31:22.652Z,0.00
2018-02-04T00:32:22.622Z,0.00
2018-02-04T00:33:22.591Z,0.00
2018-02-04T00:34:22.564Z,0.00
2018-02-04T00:35:22.533Z,0.00
2018-02-04T00:36:22.504Z,0.00
2018-02-04T00:37:22.473Z,0.00
2018-02-04T00:38:22.443Z,0.00
2018-02-04T00:39:22.413Z,0.00
2018-02-04T00:40:22.384Z,0.00
2018-02-04T00:41:22.353Z,0.00
2018-02-04T00:42:22.331Z,0.00
2018-02-04T00:43:22.294Z,0.00
2018-02-04T00:44:22.266Z,0.00
2018-02-04T00:45:22.535Z,0.00
2018-02-04T00:46:22.206Z,0.00
2018-02-04T00:47:22.175Z,0.00
2018-02-04T00:48:22.147Z,0.00
2018-02-04T00:49:22.115Z,0.00
2018-02-04T00:50:22.337Z,0.00
2018-02-04T00:51:22.058Z,0.00
2018-02-04T00:52:22.028Z,0.00
2018-02-04T00:53:21.996Z,0.00
2018-02-04T00:54:21.967Z,0.00
2018-02-04T00:55:21.937Z,0.00
2018-02-04T00:56:22.209Z,0.00
2018-02-04T00:57:21.877Z,0.00
2018-02-04T00:58:21.849Z,0.00
2018-02-04T00:59:21.819Z,0.00
2018-02-04T01:00:21.790Z,0.00
2018-02-04T01:01:21.760Z,0.00
2018-02-04T01:02:21.730Z,0.00
2018-02-04T01:03:21.700Z,0.00
2018-02-04T01:04:21.670Z,0.00
2018-02-04T01:05:21.641Z,0.00
2018-02-04T01:06:21.611Z,0.00
2018-02-04T01:07:21.581Z,0.00
2018-02-04T01:08:21.552Z,0.00
2018-02-04T01:09:21.521Z,0.00
2018-02-04T01:10:21.492Z,0.00
2018-02-04T01:11:21.462Z,0.00
2018-02-04T01:12:21.434Z,0.00
2018-02-04T01:13:21.403Z,0.00
2018-02-04T01:14:21.373Z,0.00
2018-02-04T01:15:21.344Z,0.00
2018-02-04T01:16:21.314Z,0.00
2018-02-04T01:17:21.434Z,0.00
2018-02-04T01:18:21.254Z,0.00
2018-02-04T01:19:21.226Z,0.00
2018-02-04T01:20:21.197Z,0.00
2018-02-04T01:21:21.165Z,0.00
2018-02-04T01:22:21.137Z,0.00
2018-02-04T01:23:21.105Z,0.00
2018-02-04T01:24:21.077Z,0.00
2018-02-04T01:25:21.046Z,0.00
2018-02-04T01:26:21.018Z,0.00
2018-02-04T01:27:20.988Z,0.00
2018-02-04T01:28:20.957Z,0.00
2018-02-04T01:29:20.934Z,0.00
2018-02-04T01:30:20.902Z,0.00
2018-02-04T01:31:20.869Z,0.00
2018-02-04T01:32:20.840Z,0.00
2018-02-04T01:33:20.809Z,0.00
2018-02-04T01:34:20.781Z,0.00
2018-02-04T01:35:20.751Z,0.00
2018-02-04T01:36:20.721Z,0.00
2018-02-04T01:37:20.690Z,0.00
2018-02-04T01:38:20.662Z,0.00
2018-02-04T01:39:20.631Z,0.00
2018-02-04T01:40:20.602Z,0.00
2018-02-04T01:41:20.572Z,0.00
2018-02-04T01:42:20.542Z,0.00
2018-02-04T01:43:20.513Z,0.00
2018-02-04T01:44:20.483Z,0.00
2018-02-04T01:45:20.456Z,0.00
2018-02-04T01:46:20.428Z,0.00
2018-02-04T01:47:20.645Z,0.00
2018-02-04T01:48:20.365Z,0.00
2018-02-04T01:49:20.336Z,0.00
2018-02-04T01:50:20.305Z,0.00
2018-02-04T01:51:20.276Z,0.00
2018-02-04T01:52:20.248Z,0.00
2018-02-04T01:53:20.216Z,0.00
2018-02-04T01:54:20.188Z,0.00
2018-02-04T01:55:20.158Z,0.00
2018-02-04T01:56:20.134Z,0.00
2018-02-04T01:57:20.097Z,0.00
2018-02-04T01:58:20.067Z,0.00
2018-02-04T01:59:20.040Z,0.00
2018-02-04T02:00:20.010Z,0.00
2018-02-04T02:01:19.978Z,0.00
2018-02-04T02:02:19.949Z,0.00
2018-02-04T02:03:19.919Z,0.00
2018-02-04T02:04:19.891Z,0.00
2018-02-04T02:05:19.859Z,0.00
2018-02-04T02:06:19.831Z,0.00
2018-02-04T02:07:19.800Z,0.00
2018-02-04T02:08:19.771Z,0.00
2018-02-04T02:09:19.840Z,0.00
2018-02-04T02:10:19.711Z,0.00
2018-02-04T02:11:19.681Z,0.00
2018-02-04T02:12:19.652Z,0.00
2018-02-04T02:13:19.622Z,0.00
2018-02-04T02:14:19.644Z,0.00
2018-02-04T02:15:19.563Z,0.00
2018-02-04T02:16:19.534Z,0.00
2018-02-04T02:17:19.503Z,0.00
2018-02-04T02:18:19.474Z,0.00
2018-02-04T02:19:19.444Z,0.00
2018-02-04T02:20:19.414Z,0.00
2018-02-04T02:21:19.385Z,0.00
2018-02-04T02:22:19.356Z,0.00
2018-02-04T02:23:19.325Z,0.00
2018-02-04T02:24:19.297Z,0.00
2018-02-04T02:25:19.265Z,0.00
2018-02-04T02:26:19.487Z,0.00
2018-02-04T02:27:19.207Z,0.00
2018-02-04T02:28:19.178Z,0.00
2018-02-04T02:29:19.147Z,0.00
2018-02-04T02:30:19.118Z,0.00
2018-02-04T02:31:19.089Z,0.00
2018-02-04T02:32:19.060Z,0.00
2018-02-04T02:33:19.028Z,0.00
2018-02-04T02:34:18.999Z,0.00
2018-02-04T02:35:18.970Z,0.00
2018-02-04T02:36:18.940Z,0.00
2018-02-04T02:37:18.911Z,0.00
2018-02-04T02:38:18.880Z,0.00
2018-02-04T02:39:18.851Z,0.00
2018-02-04T02:40:18.822Z,0.00
2018-02-04T02:41:18.791Z,0.00
2018-02-04T02:42:18.762Z,0.00
2018-02-04T02:43:18.735Z,0.00
2018-02-04T02:44:18.703Z,0.00
2018-02-04T02:45:18.675Z,0.00
2018-02-04T02:46:18.645Z,0.00
2018-02-04T02:47:18.615Z,0.00
2018-02-04T02:48:18.585Z,0.00
2018-02-04T02:49:18.557Z,0.00
2018-02-04T02:50:18.527Z,0.00
2018-02-04T02:51:18.497Z,0.00
2018-02-04T02:52:18.469Z,0.00
2018-02-04T02:53:18.438Z,0.00
2018-02-04T02:54:18.409Z,0.00
2018-02-04T02:55:18.380Z,0.00
2018-02-04T02:56:18.363Z,0.00
2018-02-04T02:57:18.320Z,0.00
2018-02-04T02:58:18.291Z,0.00
2018-02-04T02:59:18.263Z,0.00
2018-02-04T03:00:18.233Z,0.00
2018-02-04T03:01:18.204Z,0.00
2018-02-04T03:02:18.175Z,0.00
2018-02-04T03:03:18.147Z,0.00
2018-02-04T03:04:18.117Z,0.00
2018-02-04T03:05:18.086Z,0.00
2018-02-04T03:06:18.058Z,0.00
2018-02-04T03:07:18.028Z,0.00
2018-02-04T03:08:18.000Z,0.00
2018-02-04T03:09:18.070Z,0.00
2018-02-04T03:10:17.940Z,0.00
2018-02-04T03:11:17.913Z,0.00
2018-02-04T03:12:17.882Z,0.00
2018-02-04T03:13:17.854Z,0.00
2018-02-04T03:14:17.923Z,0.00
2018-02-04T03:15:17.796Z,0.00
2018-02-04T03:16:17.765Z,0.00
2018-02-04T03:17:17.736Z,0.00
2018-02-04T03:18:17.707Z,0.00
2018-02-04T03:19:17.678Z,0.00
2018-02-04T03:20:17.649Z,0.00
2018-02-04T03:21:17.620Z,0.00
2018-02-04T03:22:17.592Z,0.00
2018-02-04T03:23:17.562Z,0.00
2018-02-04T03:24:17.533Z,0.00
2018-02-04T03:25:17.503Z,0.00
2018-02-04T03:26:17.475Z,0.00
2018-02-04T03:27:17.448Z,0.00
2018-02-04T03:28:17.417Z,0.00
2018-02-04T03:29:17.388Z,0.00
2018-02-04T03:30:17.359Z,0.00
2018-02-04T03:31:17.330Z,0.00
2018-02-04T03:32:17.302Z,0.00
2018-02-04T03:33:17.271Z,0.00
2018-02-04T03:34:17.243Z,0.00
2018-02-04T03:35:17.213Z,0.00
2018-02-04T03:36:17.192Z,0.00
2018-02-04T03:37:17.155Z,0.00
2018-02-04T03:38:17.126Z,0.00
2018-02-04T03:39:17.198Z,0.00
2018-02-04T03:40:17.068Z,0.00
2018-02-04T03:41:17.039Z,0.00
2018-02-04T03:42:17.009Z,0.00
2018-02-04T03:43:16.980Z,0.00
2018-02-04T03:44:16.952Z,0.00
2018-02-04T03:45:17.024Z,0.00
2018-02-04T03:46:16.894Z,0.00
2018-02-04T03:47:16.865Z,0.00
2018-02-04T03:48:16.836Z,0.00
2018-02-04T03:49:16.806Z,0.00
2018-02-04T03:50:17.027Z,0.00
2018-02-04T03:51:16.749Z,0.00
2018-02-04T03:52:16.719Z,0.00
2018-02-04T03:53:16.691Z,0.00
2018-02-04T03:54:16.661Z,0.00
2018-02-04T03:55:16.631Z,0.00
2018-02-04T03:56:16.606Z,0.00
2018-02-04T03:57:16.572Z,0.00
2018-02-04T03:58:16.543Z,0.00
2018-02-04T03:59:16.516Z,0.00
2018-02-04T04:00:16.486Z,0.00
2018-02-04T04:01:16.459Z,0.00
2018-02-04T04:02:16.428Z,0.00
2018-02-04T04:03:16.398Z,0.00
2018-02-04T04:04:16.369Z,0.00
2018-02-04T04:05:16.490Z,0.00
2018-02-04T04:06:16.310Z,0.00
2018-02-04T04:07:16.282Z,0.00
2018-02-04T04:08:16.252Z,0.00
2018-02-04T04:09:16.223Z,0.00
2018-02-04T04:10:16.194Z,0.00
2018-02-04T04:11:16.164Z,0.00
2018-02-04T04:12:16.135Z,0.00
2018-02-04T04:13:16.106Z,0.00
2018-02-04T04:14:16.078Z,0.00
2018-02-04T04:15:16.147Z,0.00
2018-02-04T04:16:16.019Z,0.00
2018-02-04T04:17:15.988Z,0.00
2018-02-04T04:18:15.959Z,0.00
2018-02-04T04:19:15.929Z,0.00
2018-02-04T04:20:15.902Z,0.00
2018-02-04T04:21:15.872Z,0.00
2018-02-04T04:22:15.843Z,0.00
2018-02-04T04:23:15.813Z,0.00
2018-02-04T04:24:15.784Z,0.00
2018-02-04T04:25:15.754Z,0.00
2018-02-04T04:26:15.725Z,0.00
2018-02-04T04:27:15.697Z,0.00
2018-02-04T04:28:15.666Z,0.00
2018-02-04T04:29:15.638Z,0.00
2018-02-04T04:30:15.609Z,0.00
2018-02-04T04:31:15.579Z,0.00
2018-02-04T04:32:15.550Z,0.00
2018-02-04T04:33:15.521Z,0.00
2018-02-04T04:34:15.492Z,0.00
2018-02-04T04:35:15.464Z,0.00
2018-02-04T04:36:15.433Z,0.00
2018-02-04T04:37:15.409Z,0.00
2018-02-04T04:38:15.375Z,0.00
2018-02-04T04:39:15.346Z,0.00
2018-02-04T04:40:15.566Z,0.00
2018-02-04T04:41:15.286Z,0.00
2018-02-04T04:42:15.258Z,0.00
2018-02-04T04:43:15.232Z,0.00
2018-02-04T04:44:15.201Z,0.00
2018-02-04T04:45:15.320Z,0.00
2018-02-04T04:46:15.140Z,0.00
2018-02-04T04:47:15.112Z,0.00
2018-02-04T04:48:15.082Z,0.00
2018-02-04T04:49:15.053Z,0.00
2018-02-04T04:50:15.025Z,0.00
2018-02-04T04:51:14.995Z,0.00
2018-02-04T04:52:14.965Z,0.00
2018-02-04T04:53:14.936Z,0.00
2018-02-04T04:54:14.906Z,0.00
2018-02-04T04:55:14.878Z,0.00
2018-02-04T04:56:14.849Z,0.00
2018-02-04T04:57:14.821Z,0.00
2018-02-04T04:58:14.789Z,0.00
2018-02-04T04:59:14.761Z,0.00
2018-02-04T05:00:14.731Z,0.00
2018-02-04T05:01:14.701Z,0.00
2018-02-04T05:02:14.672Z,0.00
2018-02-04T05:03:14.642Z,0.00
2018-02-04T05:04:14.614Z,0.00
2018-02-04T05:05:14.583Z,0.00
2018-02-04T05:06:14.555Z,0.00
2018-02-04T05:07:14.525Z,0.00
2018-02-04T05:08:14.497Z,0.00
2018-02-04T05:09:14.466Z,0.00
2018-02-04T05:10:14.437Z,0.00
2018-02-04T05:11:14.408Z,0.00
2018-02-04T05:12:14.380Z,0.00
2018-02-04T05:13:14.349Z,0.00
2018-02-04T05:14:14.320Z,0.00
2018-02-04T05:15:14.291Z,0.00
2018-02-04T05:16:14.261Z,0.00
2018-02-04T05:17:14.289Z,0.00
2018-02-04T05:18:14.202Z,0.00
2018-02-04T05:19:14.172Z,0.00
2018-02-04T05:20:14.145Z,0.00
2018-02-04T05:21:14.113Z,0.00
2018-02-04T05:22:14.084Z,0.00
2018-02-04T05:23:14.156Z,0.00
2018-02-04T05:24:14.026Z,0.00
2018-02-04T05:25:13.996Z,0.00
2018-02-04T05:26:13.968Z,0.00
2018-02-04T05:27:13.939Z,0.00
2018-02-04T05:28:13.910Z,0.00
2018-02-04T05:29:13.880Z,0.00
2018-02-04T05:30:13.853Z,0.00
2018-02-04T05:31:13.820Z,0.00
2018-02-04T05:32:13.792Z,0.00
2018-02-04T05:33:13.766Z,0.00
2018-02-04T05:34:13.732Z,0.00
2018-02-04T05:35:13.705Z,0.00
2018-02-04T05:36:13.673Z,0.00
2018-02-04T05:37:13.643Z,0.00
2018-02-04T05:38:13.616Z,0.00
2018-02-04T05:39:13.586Z,0.00
2018-02-04T05:40:13.557Z,0.00
2018-02-04T05:41:13.526Z,0.00
2018-02-04T05:42:13.498Z,0.00
2018-02-04T05:43:13.469Z,0.00
2018-02-04T05:44:13.439Z,0.00
2018-02-04T05:45:13.411Z,0.00
2018-02-04T05:46:13.382Z,0.00
2018-02-04T05:47:13.350Z,0.00
2018-02-04T05:48:13.323Z,0.00
2018-02-04T05:49:13.291Z,0.00
2018-02-04T05:50:13.263Z,0.00
2018-02-04T05:51:13.234Z,0.00
2018-02-04T05:52:13.204Z,0.00
2018-02-04T05:53:13.173Z,0.00
2018-02-04T05:54:13.145Z,0.00
2018-02-04T05:55:13.118Z,0.00
2018-02-04T05:56:13.085Z,0.00
2018-02-04T05:57:13.307Z,0.00
2018-02-04T05:58:13.026Z,0.00
2018-02-04T05:59:12.998Z,0.00
2018-02-04T06:00:12.968Z,0.00
2018-02-04T06:01:12.939Z,0.00
2018-02-04T06:02:12.914Z,0.00
2018-02-04T06:03:12.879Z,0.00
2018-02-04T06:04:12.850Z,0.00
2018-02-04T06:05:12.821Z,0.00
2018-02-04T06:06:12.791Z,0.00
2018-02-04T06:07:12.762Z,0.00
2018-02-04T06:08:12.732Z,0.00
2018-02-04T06:09:12.702Z,0.00
2018-02-04T06:10:12.672Z,0.00
2018-02-04T06:11:12.643Z,0.00
2018-02-04T06:12:12.615Z,0.00
2018-02-04T06:13:12.585Z,0.00
2018-02-04T06:14:12.554Z,0.00
2018-02-04T06:15:12.525Z,0.00
2018-02-04T06:16:12.496Z,0.00
2018-02-04T06:17:12.465Z,0.00
2018-02-04T06:18:12.436Z,0.00
2018-02-04T06:19:12.406Z,0.00
2018-02-04T06:20:12.379Z,0.00
2018-02-04T06:21:12.348Z,0.00
2018-02-04T06:22:12.325Z,0.00
2018-02-04T06:23:12.289Z,0.00
2018-02-04T06:24:12.259Z,0.00
2018-02-04T06:25:12.230Z,0.00
2018-02-04T06:26:12.200Z,4.00
2018-02-04T06:27:12.172Z,4.00
2018-02-04T06:28:12.140Z,0.00
2018-02-04T06:29:12.110Z,4.00
2018-02-04T06:30:12.081Z,4.00
2018-02-04T06:31:12.066Z,4.00
2018-02-04T06:32:12.024Z,4.00
2018-02-04T06:33:12.294Z,4.00
2018-02-04T06:34:11.962Z,4.00
2018-02-04T06:35:11.934Z,8.00
2018-02-04T06:36:11.904Z,8.00
2018-02-04T06:37:11.876Z,12.00
2018-02-04T06:38:11.947Z,8.00
2018-02-04T06:39:11.817Z,16.00
2018-02-04T06:40:11.789Z,16.00
2018-02-04T06:41:11.759Z,20.00
2018-02-04T06:42:11.727Z,20.00
2018-02-04T06:43:11.697Z,24.00
2018-02-04T06:44:11.818Z,32.00
2018-02-04T06:45:11.637Z,32.00
2018-02-04T06:46:11.608Z,40.00
2018-02-04T06:47:11.578Z,44.00
2018-02-04T06:48:11.548Z,52.00
2018-02-04T06:49:11.517Z,60.00
2018-02-04T06:50:11.490Z,68.00
2018-02-04T06:51:11.460Z,72.00
2018-02-04T06:52:11.429Z,80.00
2018-02-04T06:53:11.399Z,88.00
2018-02-04T06:54:11.469Z,100.00
2018-02-04T06:55:11.340Z,108.00
2018-02-04T06:56:11.310Z,124.00
2018-02-04T06:57:11.280Z,136.00
2018-02-04T06:58:11.252Z,148.00
2018-02-04T06:59:11.221Z,164.00
2018-02-04T07:00:11.192Z,180.00
2018-02-04T07:01:11.163Z,196.00
2018-02-04T07:02:11.163Z,216.00
2018-02-04T07:03:11.103Z,228.00
2018-02-04T07:04:11.073Z,244.00
2018-02-04T07:05:11.044Z,260.00
2018-02-04T07:06:11.014Z,272.00
2018-02-04T07:07:10.984Z,280.00
2018-02-04T07:08:10.955Z,280.00
2018-02-04T07:09:11.125Z,284.00
2018-02-04T07:10:10.897Z,292.00
2018-02-04T07:11:10.867Z,300.00
2018-02-04T07:12:10.838Z,308.00
2018-02-04T07:13:10.806Z,324.00
2018-02-04T07:14:10.777Z,332.00
2018-02-04T07:15:10.748Z,328.00
2018-02-04T07:16:10.721Z,332.00
2018-02-04T07:17:10.689Z,364.00
2018-02-04T07:18:10.660Z,400.00
2018-02-04T07:19:10.631Z,436.00
2018-02-04T07:20:10.601Z,464.00
2018-02-04T07:21:10.571Z,480.00
2018-02-04T07:22:10.542Z,472.00
2018-02-04T07:23:10.512Z,444.00
2018-02-04T07:24:10.484Z,436.00
2018-02-04T07:25:10.454Z,432.00
2018-02-04T07:26:10.424Z,428.00
2018-02-04T07:27:10.395Z,428.00
2018-02-04T07:28:10.367Z,436.00
2018-02-04T07:29:10.337Z,452.00
2018-02-04T07:30:10.308Z,460.00
2018-02-04T07:31:10.278Z,468.00
2018-02-04T07:32:10.251Z,472.00
2018-02-04T07:33:10.220Z,480.00
2018-02-04T07:34:10.191Z,488.00
2018-02-04T07:35:10.411Z,492.00
2018-02-04T07:36:10.132Z,492.00
2018-02-04T07:37:10.104Z,496.00
2018-02-04T07:38:10.074Z,492.00
2018-02-04T07:39:10.045Z,488.00
2018-02-04T07:40:10.016Z,488.00
2018-02-04T07:41:09.986Z,496.00
2018-02-04T07:42:09.957Z,508.00
2018-02-04T07:43:09.927Z,532.00
2018-02-04T07:44:09.899Z,548.00
2018-02-04T07:45:10.018Z,544.00
2018-02-04T07:46:09.840Z,564.00
2018-02-04T07:47:09.811Z,640.00
2018-02-04T07:48:09.782Z,760.00
2018-02-04T07:49:09.757Z,892.00
2018-02-04T07:50:09.824Z,988.00
2018-02-04T07:51:09.694Z,1060.00
2018-02-04T07:52:09.665Z,1108.00
2018-02-04T07:53:09.635Z,1148.00
2018-02-04T07:54:09.606Z,1168.00
2018-02-04T07:55:09.577Z,1184.00
2018-02-04T07:56:09.547Z,1232.00
2018-02-04T07:57:09.517Z,1244.00
2018-02-04T07:58:09.488Z,1240.00
2018-02-04T07:59:09.463Z,1236.00
2018-02-04T08:00:09.430Z,1280.00
2018-02-04T08:01:09.401Z,1372.00
2018-02-04T08:02:09.372Z,1472.00
2018-02-04T08:03:09.342Z,1564.00
2018-02-04T08:04:09.314Z,1576.00
2018-02-04T08:05:09.284Z,1616.00
2018-02-04T08:06:09.254Z,1720.00
2018-02-04T08:07:09.227Z,1824.00
2018-02-04T08:08:09.200Z,1940.00
2018-02-04T08:09:09.170Z,2080.00
2018-02-04T08:10:09.137Z,2232.00
2018-02-04T08:11:09.108Z,2380.00
2018-02-04T08:12:09.078Z,2556.00
2018-02-04T08:13:09.050Z,2864.00
2018-02-04T08:14:09.021Z,3244.00
2018-02-04T08:15:08.992Z,3480.00
2018-02-04T08:16:08.962Z,3488.00
2018-02-04T08:17:08.937Z,3444.00
2018-02-04T08:18:08.903Z,3432.00
2018-02-04T08:19:08.875Z,3456.00
2018-02-04T08:20:08.846Z,3460.00
2018-02-04T08:21:08.815Z,3436.00
2018-02-04T08:22:08.788Z,3468.00
2018-02-04T08:23:08.759Z,3544.00
2018-02-04T08:24:08.733Z,3660.00
2018-02-04T08:25:08.850Z,3736.00
2018-02-04T08:26:08.672Z,3760.00
2018-02-04T08:27:08.642Z,3776.00
2018-02-04T08:28:08.613Z,3656.00
2018-02-04T08:29:08.584Z,3448.00
2018-02-04T08:30:08.556Z,3400.00
2018-02-04T08:31:08.528Z,3328.00
2018-02-04T08:32:08.501Z,3224.00
2018-02-04T08:33:08.474Z,3124.00
2018-02-04T08:34:08.441Z,3060.00
2018-02-04T08:35:08.415Z,3020.00
2018-02-04T08:36:08.385Z,2992.00
2018-02-04T08:37:08.355Z,2928.00
2018-02-04T08:38:08.527Z,2812.00
2018-02-04T08:39:08.298Z,2656.00
2018-02-04T08:40:08.271Z,2508.00
2018-02-04T08:41:08.242Z,2400.00
2018-02-04T08:42:08.213Z,2356.00
2018-02-04T08:43:08.184Z,2408.00
2018-02-04T08:44:08.156Z,2456.00
2018-02-04T08:45:08.277Z,2552.00
2018-02-04T08:46:08.098Z,2580.00
2018-02-04T08:47:08.070Z,2676.00
2018-02-04T08:48:08.042Z,2840.00
2018-02-04T08:49:08.014Z,3008.00
2018-02-04T08:50:07.985Z,3280.00
2018-02-04T08:51:07.957Z,3332.00
2018-02-04T08:52:07.930Z,3216.00
2018-02-04T08:53:07.899Z,3088.00
2018-02-04T08:54:07.872Z,2948.00
2018-02-04T08:55:07.844Z,2900.00
2018-02-04T08:56:07.817Z,3096.00
2018-02-04T08:57:07.786Z,3216.00
2018-02-04T08:58:07.758Z,3240.00
2018-02-04T08:59:07.731Z,3064.00
2018-02-04T09:00:07.953Z,3000.00
2018-02-04T09:01:07.674Z,2868.00
2018-02-04T09:02:07.645Z,2696.00
2018-02-04T09:03:07.616Z,2488.00
2018-02-04T09:04:07.587Z,2284.00
2018-02-04T09:05:07.559Z,2408.00
2018-02-04T09:06:07.530Z,2356.00
2018-02-04T09:07:07.506Z,2180.00
2018-02-04T09:08:07.475Z,2100.00
2018-02-04T09:09:07.446Z,2068.00
2018-02-04T09:10:07.417Z,2056.00
2018-02-04T09:11:07.392Z,1972.00
2018-02-04T09:12:07.362Z,2188.00
2018-02-04T09:13:07.332Z,2420.00
2018-02-04T09:14:07.304Z,2500.00
2018-02-04T09:15:07.276Z,2492.00
2018-02-04T09:16:07.247Z,2552.00
2018-02-04T09:17:07.219Z,2688.00
2018-02-04T09:18:07.191Z,2912.00
2018-02-04T09:19:07.191Z,3216.00
2018-02-04T09:20:07.134Z,3292.00
2018-02-04T09:21:07.106Z,3268.00
2018-02-04T09:22:07.076Z,3244.00
2018-02-04T09:23:07.050Z,3280.00
2018-02-04T09:24:07.020Z,3440.00
2018-02-04T09:25:06.991Z,3332.00
2018-02-04T09:26:06.965Z,3100.00
2018-02-04T09:27:06.936Z,3088.00
2018-02-04T09:28:07.157Z,3204.00
2018-02-04T09:29:06.879Z,3416.00
2018-02-04T09:30:06.850Z,3428.00
2018-02-04T09:31:06.822Z,3232.00
2018-02-04T09:32:06.793Z,3116.00
2018-02-04T09:33:06.765Z,3168.00
2018-02-04T09:34:06.737Z,3164.00
2018-02-04T09:35:06.707Z,3320.00
2018-02-04T09:36:06.681Z,3564.00
2018-02-04T09:37:06.651Z,3564.00
2018-02-04T09:38:06.973Z,3644.00
2018-02-04T09:39:06.598Z,3996.00
2018-02-04T09:40:06.566Z,4132.00
2018-02-04T09:41:06.538Z,3868.00
2018-02-04T09:42:06.508Z,3524.00
2018-02-04T09:43:06.630Z,3192.00
2018-02-04T09:44:06.452Z,3144.00
2018-02-04T09:45:06.423Z,3248.00
2018-02-04T09:46:06.395Z,3364.00
2018-02-04T09:47:06.366Z,3396.00
2018-02-04T09:48:06.588Z,3032.00
2018-02-04T09:49:06.309Z,2672.00
2018-02-04T09:50:06.281Z,2540.00
2018-02-04T09:51:06.253Z,2264.00
2018-02-04T09:52:06.225Z,2044.00
2018-02-04T09:53:06.446Z,2060.00
2018-02-04T09:54:06.166Z,2100.00
2018-02-04T09:55:06.138Z,2228.00
2018-02-04T09:56:06.111Z,2280.00
2018-02-04T09:57:06.080Z,2220.00
2018-02-04T09:58:06.203Z,2188.00
2018-02-04T09:59:06.024Z,2244.00
2018-02-04T10:00:05.996Z,2356.00
2018-02-04T10:01:05.966Z,2384.00
2018-02-04T10:02:05.937Z,2612.00
2018-02-04T10:03:06.010Z,2712.00
2018-02-04T10:04:05.881Z,2508.00
2018-02-04T10:05:05.852Z,2372.00
2018-02-04T10:06:05.824Z,2476.00
2018-02-04T10:07:05.795Z,2432.00
2018-02-04T10:08:05.767Z,2316.00
2018-02-04T10:09:05.738Z,2404.00
2018-02-04T10:10:05.710Z,2496.00
2018-02-04T10:11:05.682Z,2376.00
2018-02-04T10:12:05.653Z,2016.00
2018-02-04T10:13:05.630Z,1884.00
2018-02-04T10:14:05.596Z,2040.00
2018-02-04T10:15:05.568Z,2180.00
2018-02-04T10:16:05.538Z,2412.00
2018-02-04T10:17:05.513Z,2572.00
2018-02-04T10:18:05.732Z,2556.00
2018-02-04T10:19:05.453Z,2520.00
2018-02-04T10:20:05.424Z,2388.00
2018-02-04T10:21:05.411Z,2280.00
2018-02-04T10:22:05.366Z,2312.00
2018-02-04T10:23:05.393Z,2472.00
2018-02-04T10:24:05.310Z,2560.00
2018-02-04T10:25:05.282Z,2512.00
2018-02-04T10:26:05.252Z,2372.00
2018-02-04T10:27:05.225Z,2336.00
2018-02-04T10:28:05.195Z,2260.00
2018-02-04T10:29:05.167Z,2064.00
2018-02-04T10:30:05.139Z,2016.00
2018-02-04T10:31:05.110Z,2032.00
2018-02-04T10:32:05.085Z,2072.00
2018-02-04T10:33:05.053Z,2232.00
2018-02-04T10:34:05.024Z,2380.00
2018-02-04T10:35:04.996Z,2548.00
2018-02-04T10:36:04.966Z,2500.00
2018-02-04T10:37:04.937Z,2700.00
2018-02-04T10:38:04.910Z,3088.00
2018-02-04T10:39:04.881Z,3300.00
2018-02-04T10:40:05.104Z,3488.00
2018-02-04T10:41:04.828Z,3564.00
2018-02-04T10:42:04.795Z,3512.00
2018-02-04T10:43:04.766Z,3316.00
2018-02-04T10:44:04.739Z,3428.00
2018-02-04T10:45:04.959Z,3592.00
2018-02-04T10:46:04.681Z,3740.00
2018-02-04T10:47:04.653Z,3744.00
2018-02-04T10:48:04.623Z,3508.00
2018-02-04T10:49:04.595Z,3144.00
2018-02-04T10:50:04.567Z,2804.00
2018-02-04T10:51:04.538Z,2456.00
2018-02-04T10:52:04.510Z,2216.00
2018-02-04T10:53:04.481Z,2032.00
2018-02-04T10:54:04.460Z,1980.00
2018-02-04T10:55:04.425Z,1956.00
2018-02-04T10:56:04.397Z,2140.00
2018-02-04T10:57:04.368Z,2544.00
2018-02-04T10:58:04.340Z,2796.00
2018-02-04T10:59:04.461Z,2840.00
2018-02-04T11:00:04.283Z,2840.00
2018-02-04T11:01:04.253Z,2796.00
2018-02-04T11:02:04.226Z,3008.00
2018-02-04T11:03:04.198Z,3244.00
2018-02-04T11:04:04.170Z,3384.00
2018-02-04T11:05:04.141Z,3224.00
2018-02-04T11:06:04.112Z,3328.00
2018-02-04T11:07:04.083Z,3388.00
2018-02-04T11:08:04.057Z,3316.00
2018-02-04T11:09:04.032Z,3084.00
2018-02-04T11:10:03.998Z,2880.00
2018-02-04T11:11:03.970Z,2692.00
2018-02-04T11:12:03.945Z,2800.00
2018-02-04T11:13:03.915Z,2764.00
2018-02-04T11:14:03.886Z,2656.00
2018-02-04T11:15:03.859Z,2716.00
2018-02-04T11:16:03.829Z,2660.00
2018-02-04T11:17:03.801Z,2748.00
2018-02-04T11:18:03.773Z,2720.00
2018-02-04T11:19:03.744Z,2680.00
2018-02-04T11:20:03.716Z,2716.00
2018-02-04T11:21:03.688Z,2780.00
2018-02-04T11:22:03.909Z,2732.00
2018-02-04T11:23:03.632Z,2676.00
2018-02-04T11:24:03.604Z,2696.00
2018-02-04T11:25:03.574Z,2748.00
2018-02-04T11:26:03.547Z,2668.00
2018-02-04T11:27:03.522Z,2584.00
2018-02-04T11:28:03.489Z,2716.00
2018-02-04T11:29:03.461Z,2616.00
2018-02-04T11:30:03.433Z,2560.00
2018-02-04T11:31:03.404Z,2648.00
2018-02-04T11:32:03.377Z,2900.00
2018-02-04T11:33:03.348Z,3052.00
2018-02-04T11:34:03.320Z,2992.00
2018-02-04T11:35:03.291Z,2944.00
2018-02-04T11:36:03.263Z,2876.00
2018-02-04T11:37:03.235Z,2928.00
2018-02-04T11:38:03.207Z,3192.00
2018-02-04T11:39:03.178Z,3608.00
2018-02-04T11:40:03.152Z,3740.00
2018-02-04T11:41:03.121Z,3524.00
2018-02-04T11:42:03.094Z,3772.00
2018-02-04T11:43:03.067Z,3928.00
2018-02-04T11:44:03.042Z,3800.00
2018-02-04T11:45:03.009Z,4392.00
2018-02-04T11:46:02.981Z,4960.00
2018-02-04T11:47:02.953Z,4684.00
2018-02-04T11:48:02.924Z,5012.00
2018-02-04T11:49:02.896Z,5420.00
2018-02-04T11:50:02.867Z,5580.00
2018-02-04T11:51:02.840Z,5436.00
2018-02-04T11:52:02.813Z,5708.00
2018-02-04T11:53:02.782Z,5912.00
2018-02-04T11:54:02.756Z,6828.00
2018-02-04T11:55:02.726Z,7132.00
2018-02-04T11:56:02.798Z,7404.00
2018-02-04T11:57:02.672Z,7248.00
2018-02-04T11:58:02.642Z,7064.00
2018-02-04T11:59:02.613Z,7016.00
2018-02-04T12:00:02.587Z,6688.00
2018-02-04T12:01:02.557Z,5808.00
2018-02-04T12:02:02.530Z,5972.00
2018-02-04T12:03:02.504Z,5648.00
2018-02-04T12:04:02.475Z,5628.00
2018-02-04T12:05:02.444Z,5768.00
2018-02-04T12:06:02.667Z,6456.00
2018-02-04T12:07:02.388Z,6768.00
2018-02-04T12:08:02.362Z,6332.00
2018-02-04T12:09:02.333Z,5940.00
2018-02-04T12:10:02.306Z,6776.00
2018-02-04T12:11:02.276Z,6548.00
2018-02-04T12:12:02.251Z,6096.00
2018-02-04T12:13:02.221Z,6184.00
2018-02-04T12:14:02.193Z,6020.00
2018-02-04T12:15:02.165Z,5644.00
2018-02-04T12:16:02.386Z,5720.00
2018-02-04T12:17:02.109Z,5840.00
2018-02-04T12:18:02.081Z,6004.00
2018-02-04T12:19:02.053Z,5740.00
2018-02-04T12:20:02.024Z,5424.00
2018-02-04T12:21:01.996Z,5292.00
2018-02-04T12:22:01.968Z,5252.00
2018-02-04T12:23:01.940Z,5200.00
2018-02-04T12:24:01.913Z,5000.00
2018-02-04T12:25:01.884Z,4984.00
2018-02-04T12:26:01.860Z,4876.00
2018-02-04T12:27:01.829Z,4808.00
2018-02-04T12:28:01.801Z,4896.00
2018-02-04T12:29:01.772Z,4716.00
2018-02-04T12:30:01.744Z,5220.00
2018-02-04T12:31:01.716Z,4804.00
2018-02-04T12:32:01.689Z,4740.00
2018-02-04T12:33:01.658Z,4824.00
2018-02-04T12:34:01.630Z,4436.00
2018-02-04T12:35:01.603Z,4676.00
2018-02-04T12:36:01.576Z,4744.00
2018-02-04T12:37:01.551Z,4268.00
2018-02-04T12:38:01.519Z,4484.00
2018-02-04T12:39:01.490Z,4388.00
2018-02-04T12:40:01.463Z,4552.00
2018-02-04T12:41:01.472Z,4832.00
2018-02-04T12:42:01.405Z,4492.00
2018-02-04T12:43:01.379Z,4896.00
2018-02-04T12:44:01.350Z,5140.00